createdAt,value
2023-04-07T00:04:52.019Z,8.49
2023-04-07T00:10:13.925Z,8.43
2023-04-07T00:15:35.913Z,8.35
2023-04-07T00:20:57.886Z,8.32
2023-04-07T00:26:19.884Z,8.25
2023-04-07T00:31:41.903Z,8.22
2023-04-07T00:37:03.874Z,8.17
2023-04-07T00:42:25.871Z,8.15
2023-04-07T00:47:47.946Z,8.11
2023-04-07T00:53:09.878Z,8.07
2023-04-07T00:58:31.880Z,8.03
2023-04-07T01:04:23.018Z,8.01
2023-04-07T01:09:52.864Z,7.98
2023-04-07T01:15:23.869Z,7.95
2023-04-07T01:20:48.860Z,7.93
2023-04-07T01:26:46.868Z,7.89
2023-04-07T01:32:12.881Z,7.86
2023-04-07T01:37:34.865Z,7.80
2023-04-07T01:42:56.866Z,7.73
2023-04-07T01:48:20.846Z,7.68
2023-04-07T01:53:45.868Z,7.63
2023-04-07T01:59:07.862Z,7.60
2023-04-07T02:04:57.861Z,7.58
2023-04-07T02:10:24.889Z,7.56
2023-04-07T02:15:48.833Z,7.52
2023-04-07T02:21:12.839Z,7.50
2023-04-07T02:26:35.483Z,7.47
2023-04-07T02:31:56.889Z,7.41
2023-04-07T02:37:18.841Z,7.38
2023-04-07T02:42:40.858Z,7.36
2023-04-07T02:48:02.839Z,7.32
2023-04-07T02:53:24.853Z,7.31
2023-04-07T02:58:46.832Z,7.26
2023-04-07T03:04:09.917Z,7.22
2023-04-07T03:09:31.819Z,7.17
2023-04-07T03:14:53.845Z,7.14
2023-04-07T03:20:16.836Z,7.11
2023-04-07T03:25:38.838Z,7.06
2023-04-07T03:31:00.860Z,7.04
2023-04-07T03:36:22.921Z,6.98
2023-04-07T03:41:47.829Z,6.91
2023-04-07T03:47:09.829Z,6.87
2023-04-07T03:52:36.798Z,6.83
2023-04-07T03:58:09.821Z,6.79
2023-04-07T04:03:34.902Z,6.75
2023-04-07T04:09:09.811Z,6.68
2023-04-07T04:14:34.822Z,6.62
2023-04-07T04:19:58.824Z,6.60
2023-04-07T04:25:28.793Z,6.57
2023-04-07T04:30:54.833Z,6.54
2023-04-07T04:36:18.830Z,6.48
2023-04-07T04:41:45.803Z,6.46
2023-04-07T04:47:10.859Z,6.42
2023-04-07T04:52:33.849Z,6.36
2023-04-07T04:58:00.788Z,6.32
2023-04-07T05:03:33.900Z,6.27
2023-04-07T05:09:02.796Z,6.27
2023-04-07T05:14:33.827Z,6.26
2023-04-07T05:19:56.799Z,6.27
2023-04-07T05:25:24.812Z,6.29
2023-04-07T05:30:49.776Z,6.33
2023-04-07T05:36:16.832Z,6.38
2023-04-07T05:41:42.776Z,6.42
2023-04-07T05:47:05.809Z,6.48
2023-04-07T05:52:28.794Z,6.54
2023-04-07T05:58:02.782Z,6.59
2023-04-07T06:03:24.919Z,6.67
2023-04-07T06:08:54.775Z,6.75
2023-04-07T06:14:16.781Z,6.82
2023-04-07T06:19:38.761Z,6.89
2023-04-07T06:25:00.799Z,6.98
2023-04-07T06:30:23.894Z,7.05
2023-04-07T06:35:46.756Z,7.14
2023-04-07T06:41:08.748Z,7.23
2023-04-07T06:46:32.806Z,7.34
2023-04-07T06:51:54.748Z,7.47
2023-04-07T06:57:18.756Z,7.62
2023-04-07T07:02:40.934Z,7.70
2023-04-07T07:08:02.766Z,7.82
2023-04-07T07:13:24.741Z,7.94
2023-04-07T07:18:46.759Z,8.10
2023-04-07T07:24:08.748Z,8.25
2023-04-07T07:29:30.748Z,8.42
2023-04-07T07:34:52.736Z,8.59
2023-04-07T07:40:14.734Z,8.76
2023-04-07T07:45:36.749Z,8.89
2023-04-07T07:50:58.737Z,9.07
2023-04-07T07:56:20.741Z,9.22
2023-04-07T08:01:42.767Z,9.36
2023-04-07T08:07:11.720Z,9.54
2023-04-07T08:12:33.717Z,9.71
2023-04-07T08:17:56.319Z,9.87
2023-04-07T08:23:17.731Z,10.06
2023-04-07T08:28:39.734Z,10.26
2023-04-07T08:34:04.725Z,10.44
2023-04-07T08:39:26.723Z,10.61
2023-04-07T08:44:48.709Z,10.76
2023-04-07T08:50:22.746Z,10.95
2023-04-07T08:55:44.719Z,11.15
2023-04-07T09:01:06.749Z,11.32
2023-04-07T09:06:35.720Z,11.50
2023-04-07T09:11:57.699Z,11.65
2023-04-07T09:17:19.702Z,11.82
2023-04-07T09:22:48.704Z,12.01
2023-04-07T09:28:14.714Z,12.20
2023-04-07T09:33:36.716Z,12.37
2023-04-07T09:38:58.725Z,12.52
2023-04-07T09:44:20.728Z,12.69
2023-04-07T09:49:42.697Z,12.84
2023-04-07T09:55:04.736Z,12.97
2023-04-07T10:00:26.722Z,13.17
2023-04-07T10:05:48.724Z,13.35
2023-04-07T10:11:11.714Z,13.53
2023-04-07T10:16:33.703Z,13.72
2023-04-07T10:21:57.722Z,13.82
2023-04-07T10:27:24.688Z,13.95
2023-04-07T10:32:58.786Z,14.11
2023-04-07T10:38:21.723Z,14.27
2023-04-07T10:43:54.693Z,14.44
2023-04-07T10:49:18.613Z,14.52
2023-04-07T10:54:40.683Z,14.68
2023-04-07T11:00:17.753Z,14.86
2023-04-07T11:05:39.700Z,14.96
2023-04-07T11:11:01.720Z,15.06
2023-04-07T11:16:23.745Z,15.10
2023-04-07T11:21:45.669Z,15.03
2023-04-07T11:27:07.721Z,14.97
2023-04-07T11:32:35.759Z,14.91
2023-04-07T11:37:57.684Z,14.93
2023-04-07T11:43:27.719Z,15.09
2023-04-07T11:48:50.682Z,15.21
2023-04-07T11:54:12.664Z,15.38
2023-04-07T11:59:39.686Z,15.44
2023-04-07T12:05:03.859Z,15.44
2023-04-07T12:10:26.678Z,15.48
2023-04-07T12:15:49.693Z,15.50
2023-04-07T12:21:11.664Z,15.51
2023-04-07T12:26:33.675Z,15.53
2023-04-07T12:31:55.705Z,15.54
2023-04-07T12:37:17.663Z,15.56
2023-04-07T12:42:39.679Z,15.65
2023-04-07T12:48:01.679Z,15.77
2023-04-07T12:53:23.682Z,15.83
2023-04-07T12:58:45.646Z,15.86
2023-04-07T13:04:08.762Z,15.88
2023-04-07T13:09:30.662Z,15.88
2023-04-07T13:14:59.724Z,15.84
2023-04-07T13:20:22.694Z,15.86
2023-04-07T13:25:44.669Z,15.89
2023-04-07T13:31:06.732Z,15.91
2023-04-07T13:36:28.674Z,15.93
2023-04-07T13:41:50.652Z,15.96
2023-04-07T13:47:12.658Z,16.09
2023-04-07T13:52:34.673Z,16.27
2023-04-07T13:57:56.658Z,16.37
2023-04-07T14:03:18.697Z,16.31
2023-04-07T14:08:40.666Z,16.29
2023-04-07T14:14:03.661Z,16.32
2023-04-07T14:19:28.666Z,16.32
2023-04-07T14:24:50.626Z,16.24
2023-04-07T14:30:12.643Z,16.21
2023-04-07T14:35:34.655Z,16.17
2023-04-07T14:40:56.679Z,16.10
2023-04-07T14:46:18.681Z,16.04
2023-04-07T14:51:40.653Z,16.04
2023-04-07T14:57:02.622Z,15.97
2023-04-07T15:02:24.834Z,15.95
2023-04-07T15:08:01.677Z,16.02
2023-04-07T15:13:23.631Z,16.17
2023-04-07T15:18:45.653Z,16.40
2023-04-07T15:24:07.636Z,16.68
2023-04-07T15:29:29.623Z,16.97
2023-04-07T15:34:51.629Z,17.28
2023-04-07T15:40:13.642Z,17.58
2023-04-07T15:45:35.639Z,17.85
2023-04-07T15:50:58.631Z,17.90
2023-04-07T15:56:20.640Z,17.76
2023-04-07T16:01:42.716Z,17.67
2023-04-07T16:07:04.620Z,17.51
2023-04-07T16:12:26.636Z,17.53
2023-04-07T16:17:53.672Z,17.53
2023-04-07T16:23:15.631Z,17.46
2023-04-07T16:28:37.640Z,17.39
2023-04-07T16:33:59.613Z,17.31
2023-04-07T16:39:22.981Z,17.29
2023-04-07T16:44:46.623Z,17.24
2023-04-07T16:50:10.633Z,17.15
2023-04-07T16:55:32.639Z,17.01
2023-04-07T17:00:54.620Z,16.86
2023-04-07T17:06:17.614Z,16.72
2023-04-07T17:11:39.623Z,16.53
2023-04-07T17:17:01.660Z,16.34
2023-04-07T17:22:23.620Z,16.11
2023-04-07T17:27:45.612Z,15.92
2023-04-07T17:33:07.653Z,15.75
2023-04-07T17:38:29.605Z,15.62
2023-04-07T17:43:51.612Z,15.48
2023-04-07T17:49:13.665Z,15.31
2023-04-07T17:54:35.629Z,15.14
2023-04-07T17:59:57.657Z,15.01
2023-04-07T18:05:27.595Z,14.88
2023-04-07T18:10:49.614Z,14.81
2023-04-07T18:16:15.651Z,14.72
2023-04-07T18:21:37.616Z,14.64
2023-04-07T18:26:59.621Z,14.56
2023-04-07T18:32:21.595Z,14.44
2023-04-07T18:37:44.340Z,14.35
2023-04-07T18:43:05.597Z,14.27
2023-04-07T18:48:28.621Z,14.16
2023-04-07T18:53:50.738Z,14.05
2023-04-07T18:59:14.602Z,13.93
2023-04-07T19:04:36.580Z,13.79
2023-04-07T19:10:00.581Z,13.71
2023-04-07T19:15:23.590Z,13.57
2023-04-07T19:20:45.587Z,13.42
2023-04-07T19:26:07.635Z,13.29
2023-04-07T19:31:29.626Z,13.13
2023-04-07T19:36:51.590Z,12.99
2023-04-07T19:42:13.578Z,12.88
2023-04-07T19:47:35.615Z,12.74
2023-04-07T19:52:59.599Z,12.58
2023-04-07T19:58:23.607Z,12.54
2023-04-07T20:03:52.740Z,12.51
2023-04-07T20:09:21.561Z,12.45
2023-04-07T20:14:44.588Z,12.44
2023-04-07T20:20:09.604Z,12.36
2023-04-07T20:25:31.588Z,12.24
2023-04-07T20:30:53.640Z,12.10
2023-04-07T20:36:15.588Z,11.98
2023-04-07T20:41:37.572Z,11.87
2023-04-07T20:46:59.568Z,11.78
2023-04-07T20:52:28.574Z,11.75
2023-04-07T20:57:50.609Z,11.69
2023-04-07T21:03:12.837Z,11.60
2023-04-07T21:08:41.589Z,11.50
2023-04-07T21:14:03.555Z,11.38
2023-04-07T21:19:25.582Z,11.23
2023-04-07T21:24:47.558Z,11.01
2023-04-07T21:30:09.592Z,10.87
2023-04-07T21:35:34.613Z,10.78
2023-04-07T21:40:56.607Z,10.69
2023-04-07T21:46:20.590Z,10.59
2023-04-07T21:51:43.558Z,10.53
2023-04-07T21:57:07.631Z,10.62
2023-04-07T22:02:29.745Z,10.72
2023-04-07T22:07:58.592Z,10.84
2023-04-07T22:13:20.530Z,10.88
2023-04-07T22:18:42.535Z,10.83
2023-04-07T22:24:04.538Z,10.76
2023-04-07T22:29:26.558Z,10.71
2023-04-07T22:34:48.546Z,10.69
2023-04-07T22:40:10.549Z,10.67
2023-04-07T22:45:32.525Z,10.69
2023-04-07T22:50:54.548Z,10.69
2023-04-07T22:56:16.550Z,10.67
2023-04-07T23:01:38.663Z,10.67
2023-04-07T23:07:00.531Z,10.59
2023-04-07T23:12:22.553Z,10.51
2023-04-07T23:17:44.572Z,10.49
2023-04-07T23:23:06.554Z,10.44
2023-04-07T23:28:28.515Z,10.29
2023-04-07T23:33:50.534Z,10.22
2023-04-07T23:39:12.533Z,10.11
2023-04-07T23:44:34.524Z,10.04
2023-04-07T23:49:56.512Z,9.95
2023-04-07T23:55:18.529Z,9.90
